N41GJ KCHS-KBHM
Flight info
| Callsign | N41GJ |
|---|---|
| Flight time | 1h 6m |
| Altitude | 40000 |
| Route | STUNO1 ALD KIOSK |
| Aircraft | LJ35/M-SGHRWXY/SB1 |
Departure
| Time | 2026-04-29 00:32 |
|---|---|
| Airport | Charleston International Airport (KCHS) |
Arrival
| Time | 2026-04-29 01:39 |
|---|---|
| Airport | Birmingham-Shuttlesworth International Airport (KBHM) |
| Time | Latitude | Longitude | Altitude | Speed | Heading |
|---|---|---|---|---|---|
| 2026-04-29 00:12 | 32.90589 | -80.04691 | 32 ft | 0 kts | 56° |
| 2026-04-29 00:26 | 32.90590 | -80.04689 | 42 ft | 3 kts | 56° |
| 2026-04-29 00:26 | 32.90623 | -80.04633 | 42 ft | 12 kts | 51° |
| 2026-04-29 00:27 | 32.90636 | -80.04616 | 42 ft | 2 kts | 38° |
| 2026-04-29 00:27 | 32.90677 | -80.04642 | 43 ft | 12 kts | 325° |
| 2026-04-29 00:27 | 32.90766 | -80.04710 | 44 ft | 16 kts | 327° |
| 2026-04-29 00:27 | 32.90864 | -80.04786 | 45 ft | 16 kts | 327° |
| 2026-04-29 00:28 | 32.90946 | -80.04847 | 47 ft | 14 kts | 329° |
| 2026-04-29 00:28 | 32.91003 | -80.04892 | 46 ft | 16 kts | 326° |
| 2026-04-29 00:28 | 32.91126 | -80.04984 | 45 ft | 14 kts | 329° |
| 2026-04-29 00:28 | 32.91210 | -80.04960 | 47 ft | 14 kts | 55° |
| 2026-04-29 00:29 | 32.91243 | -80.04900 | 48 ft | 0 kts | 57° |
| 2026-04-29 00:31 | 32.91251 | -80.04885 | 49 ft | 6 kts | 57° |
| 2026-04-29 00:32 | 32.91281 | -80.04826 | 49 ft | 11 kts | 69° |
| 2026-04-29 00:32 | 32.91187 | -80.04722 | 49 ft | 45 kts | 148° |
| 2026-04-29 00:32 | 32.90626 | -80.04298 | 59 ft | 142 kts | 149° |
| 2026-04-29 00:32 | 32.89759 | -80.03593 | 990 ft | 159 kts | 144° |
| 2026-04-29 00:33 | 32.88639 | -80.03157 | 1905 ft | 185 kts | 184° |
| 2026-04-29 00:33 | 32.87447 | -80.03879 | 2858 ft | 206 kts | 227° |
| 2026-04-29 00:33 | 32.86658 | -80.05310 | 4210 ft | 208 kts | 244° |
| 2026-04-29 00:33 | 32.86355 | -80.06868 | 5541 ft | 185 kts | 271° |
| 2026-04-29 00:34 | 32.86517 | -80.08460 | 6126 ft | 197 kts | 282° |
| 2026-04-29 00:34 | 32.86803 | -80.10080 | 6802 ft | 205 kts | 282° |
| 2026-04-29 00:34 | 32.87148 | -80.11777 | 7340 ft | 215 kts | 283° |
| 2026-04-29 00:34 | 32.87297 | -80.13549 | 8052 ft | 217 kts | 271° |
| 2026-04-29 00:35 | 32.87288 | -80.15389 | 8567 ft | 229 kts | 270° |
| 2026-04-29 00:35 | 32.87213 | -80.17370 | 9004 ft | 247 kts | 266° |
| 2026-04-29 00:35 | 32.86991 | -80.19457 | 9422 ft | 261 kts | 263° |
| 2026-04-29 00:35 | 32.86908 | -80.21595 | 9978 ft | 264 kts | 277° |
| 2026-04-29 00:36 | 32.87456 | -80.23657 | 10619 ft | 263 kts | 294° |
| 2026-04-29 00:36 | 32.88271 | -80.25637 | 11130 ft | 268 kts | 295° |
| 2026-04-29 00:36 | 32.88977 | -80.27707 | 11689 ft | 272 kts | 288° |
| 2026-04-29 00:36 | 32.89463 | -80.29900 | 12222 ft | 276 kts | 283° |
| 2026-04-29 00:37 | 32.89879 | -80.32151 | 12741 ft | 280 kts | 283° |
| 2026-04-29 00:37 | 32.90357 | -80.34415 | 13278 ft | 284 kts | 285° |
| 2026-04-29 00:37 | 32.90871 | -80.36701 | 13784 ft | 288 kts | 285° |
| 2026-04-29 00:37 | 32.91376 | -80.39016 | 14268 ft | 290 kts | 285° |
| 2026-04-29 00:38 | 32.91883 | -80.41349 | 14771 ft | 291 kts | 285° |
| 2026-04-29 00:38 | 32.92411 | -80.43684 | 15289 ft | 292 kts | 286° |
| 2026-04-29 00:38 | 32.92941 | -80.46024 | 15789 ft | 293 kts | 285° |
| 2026-04-29 00:38 | 32.93475 | -80.48372 | 16291 ft | 295 kts | 287° |
| 2026-04-29 00:39 | 32.93934 | -80.50757 | 16772 ft | 297 kts | 280° |
| 2026-04-29 00:39 | 32.94161 | -80.53212 | 17260 ft | 299 kts | 278° |
| 2026-04-29 00:39 | 32.94367 | -80.55685 | 17741 ft | 300 kts | 278° |
| 2026-04-29 00:39 | 32.94600 | -80.58133 | 18218 ft | 302 kts | 279° |
| 2026-04-29 00:40 | 32.94847 | -80.60621 | 18649 ft | 303 kts | 279° |
| 2026-04-29 00:40 | 32.95085 | -80.63116 | 19057 ft | 304 kts | 279° |
| 2026-04-29 00:40 | 32.95320 | -80.65626 | 19460 ft | 305 kts | 279° |
| 2026-04-29 00:40 | 32.95557 | -80.68145 | 19859 ft | 306 kts | 279° |
| 2026-04-29 00:41 | 32.95796 | -80.70674 | 20258 ft | 307 kts | 279° |
| 2026-04-29 00:41 | 32.96035 | -80.73207 | 20649 ft | 309 kts | 279° |
| 2026-04-29 00:41 | 32.96274 | -80.75757 | 21040 ft | 310 kts | 279° |
| 2026-04-29 00:41 | 32.96513 | -80.78313 | 21417 ft | 311 kts | 279° |
| 2026-04-29 00:42 | 32.96753 | -80.80879 | 21795 ft | 312 kts | 279° |
| 2026-04-29 00:42 | 32.96990 | -80.83422 | 22162 ft | 313 kts | 279° |
| 2026-04-29 00:42 | 32.97230 | -80.86001 | 22528 ft | 315 kts | 279° |
| 2026-04-29 00:42 | 32.97471 | -80.88597 | 22890 ft | 316 kts | 279° |
| 2026-04-29 00:43 | 32.97714 | -80.91206 | 23244 ft | 317 kts | 279° |
| 2026-04-29 00:43 | 32.97962 | -80.93824 | 23595 ft | 318 kts | 279° |
| 2026-04-29 00:43 | 32.98211 | -80.96446 | 23883 ft | 319 kts | 279° |
| 2026-04-29 00:43 | 32.98459 | -80.99084 | 24153 ft | 321 kts | 278° |
| 2026-04-29 00:44 | 32.98706 | -81.01734 | 24420 ft | 323 kts | 278° |
| 2026-04-29 00:44 | 32.98955 | -81.04398 | 24693 ft | 324 kts | 278° |
| 2026-04-29 00:44 | 32.99205 | -81.07073 | 24951 ft | 326 kts | 278° |
| 2026-04-29 00:44 | 32.99455 | -81.09761 | 25206 ft | 327 kts | 278° |
| 2026-04-29 00:45 | 32.99707 | -81.12471 | 25462 ft | 329 kts | 278° |
| 2026-04-29 00:45 | 32.99955 | -81.15153 | 25713 ft | 330 kts | 278° |
| 2026-04-29 00:45 | 33.00207 | -81.17877 | 25966 ft | 332 kts | 278° |
| 2026-04-29 00:45 | 33.00460 | -81.20621 | 26214 ft | 333 kts | 278° |
| 2026-04-29 00:46 | 33.00713 | -81.23372 | 26459 ft | 335 kts | 277° |
| 2026-04-29 00:46 | 33.00966 | -81.26134 | 26698 ft | 336 kts | 277° |
| 2026-04-29 00:46 | 33.01222 | -81.28921 | 26935 ft | 338 kts | 278° |
| 2026-04-29 00:46 | 33.01605 | -81.31683 | 27160 ft | 339 kts | 280° |
| 2026-04-29 00:47 | 33.01981 | -81.34460 | 27395 ft | 340 kts | 279° |
| 2026-04-29 00:47 | 33.02344 | -81.37254 | 27621 ft | 342 kts | 279° |
| 2026-04-29 00:47 | 33.02727 | -81.40055 | 27849 ft | 343 kts | 279° |
| 2026-04-29 00:47 | 33.03117 | -81.42865 | 28071 ft | 344 kts | 279° |
| 2026-04-29 00:48 | 33.03497 | -81.45652 | 28293 ft | 345 kts | 279° |
| 2026-04-29 00:48 | 33.03878 | -81.48483 | 28508 ft | 347 kts | 279° |
| 2026-04-29 00:48 | 33.04264 | -81.51327 | 28723 ft | 348 kts | 279° |
| 2026-04-29 00:48 | 33.04651 | -81.54177 | 28933 ft | 349 kts | 279° |
| 2026-04-29 00:49 | 33.05038 | -81.57038 | 29142 ft | 350 kts | 279° |
| 2026-04-29 00:49 | 33.05424 | -81.59908 | 29351 ft | 351 kts | 279° |
| 2026-04-29 00:49 | 33.05812 | -81.62791 | 29549 ft | 352 kts | 278° |
| 2026-04-29 00:49 | 33.06201 | -81.65678 | 29751 ft | 353 kts | 278° |
| 2026-04-29 00:50 | 33.06589 | -81.68571 | 29945 ft | 353 kts | 278° |
| 2026-04-29 00:50 | 33.06972 | -81.71429 | 30126 ft | 354 kts | 278° |
| 2026-04-29 00:50 | 33.07360 | -81.74330 | 30291 ft | 355 kts | 278° |
| 2026-04-29 00:50 | 33.07752 | -81.77274 | 30445 ft | 355 kts | 278° |
| 2026-04-29 00:51 | 33.08135 | -81.80146 | 30597 ft | 355 kts | 278° |
| 2026-04-29 00:51 | 33.08523 | -81.83060 | 30741 ft | 356 kts | 278° |
| 2026-04-29 00:51 | 33.08910 | -81.85975 | 30889 ft | 356 kts | 278° |
| 2026-04-29 00:51 | 33.09296 | -81.88895 | 31032 ft | 357 kts | 278° |
| 2026-04-29 00:52 | 33.09682 | -81.91816 | 31172 ft | 357 kts | 278° |
| 2026-04-29 00:52 | 33.10069 | -81.94743 | 31307 ft | 357 kts | 278° |
| 2026-04-29 00:52 | 33.10455 | -81.97676 | 31435 ft | 357 kts | 278° |
| 2026-04-29 00:52 | 33.10840 | -82.00603 | 31563 ft | 358 kts | 278° |
| 2026-04-29 00:53 | 33.11226 | -82.03541 | 31681 ft | 358 kts | 278° |
| 2026-04-29 00:53 | 33.11611 | -82.06480 | 31796 ft | 358 kts | 278° |
| 2026-04-29 00:53 | 33.11996 | -82.09420 | 31904 ft | 359 kts | 278° |
| 2026-04-29 00:53 | 33.12380 | -82.12368 | 32012 ft | 359 kts | 278° |
| 2026-04-29 00:54 | 33.12758 | -82.15274 | 32100 ft | 360 kts | 278° |
| 2026-04-29 00:54 | 33.13532 | -82.21226 | 32103 ft | 365 kts | 278° |
| 2026-04-29 00:55 | 33.14311 | -82.27250 | 32107 ft | 369 kts | 278° |
| 2026-04-29 00:55 | 33.15094 | -82.33325 | 32110 ft | 371 kts | 278° |
| 2026-04-29 00:56 | 33.15878 | -82.39427 | 32112 ft | 372 kts | 278° |
| 2026-04-29 00:56 | 33.16656 | -82.45514 | 32112 ft | 373 kts | 278° |
| 2026-04-29 00:57 | 33.17437 | -82.51645 | 32114 ft | 373 kts | 278° |
| 2026-04-29 00:57 | 33.18216 | -82.57787 | 32119 ft | 373 kts | 278° |
| 2026-04-29 00:58 | 33.18990 | -82.63917 | 32117 ft | 373 kts | 277° |
| 2026-04-29 00:58 | 33.19758 | -82.70015 | 32116 ft | 373 kts | 278° |
| 2026-04-29 00:59 | 33.20527 | -82.76149 | 32117 ft | 373 kts | 277° |
| 2026-04-29 00:59 | 33.21291 | -82.82272 | 32115 ft | 373 kts | 278° |
| 2026-04-29 01:00 | 33.22051 | -82.88402 | 32118 ft | 372 kts | 277° |
| 2026-04-29 01:00 | 33.22808 | -82.94514 | 32118 ft | 372 kts | 278° |
| 2026-04-29 01:01 | 33.23561 | -83.00627 | 32121 ft | 372 kts | 278° |
| 2026-04-29 01:01 | 33.24306 | -83.06695 | 32123 ft | 371 kts | 278° |
| 2026-04-29 01:02 | 33.25052 | -83.12797 | 32135 ft | 371 kts | 278° |
| 2026-04-29 01:02 | 33.25796 | -83.18904 | 32136 ft | 371 kts | 278° |
| 2026-04-29 01:03 | 33.26609 | -83.24994 | 32136 ft | 371 kts | 279° |
| 2026-04-29 01:03 | 33.27497 | -83.31061 | 32135 ft | 370 kts | 279° |
| 2026-04-29 01:04 | 33.28335 | -83.37131 | 32127 ft | 370 kts | 279° |
| 2026-04-29 01:04 | 33.29194 | -83.43202 | 32125 ft | 370 kts | 279° |
| 2026-04-29 01:05 | 33.30038 | -83.49275 | 32132 ft | 370 kts | 279° |
| 2026-04-29 01:05 | 33.30880 | -83.55315 | 32133 ft | 370 kts | 279° |
| 2026-04-29 01:06 | 33.31721 | -83.61393 | 32132 ft | 370 kts | 279° |
| 2026-04-29 01:06 | 33.32563 | -83.67492 | 32136 ft | 371 kts | 279° |
| 2026-04-29 01:07 | 33.33399 | -83.73579 | 32134 ft | 371 kts | 279° |
| 2026-04-29 01:07 | 33.34233 | -83.79663 | 32138 ft | 371 kts | 279° |
| 2026-04-29 01:08 | 33.35064 | -83.85759 | 32141 ft | 371 kts | 278° |
| 2026-04-29 01:08 | 33.35895 | -83.91858 | 32144 ft | 371 kts | 278° |
| 2026-04-29 01:09 | 33.36719 | -83.97951 | 32143 ft | 371 kts | 278° |
| 2026-04-29 01:09 | 33.37538 | -84.04016 | 32164 ft | 371 kts | 278° |
| 2026-04-29 01:10 | 33.38358 | -84.10116 | 32180 ft | 371 kts | 278° |
| 2026-04-29 01:10 | 33.39175 | -84.16220 | 32193 ft | 371 kts | 278° |
| 2026-04-29 01:11 | 33.39990 | -84.22329 | 32207 ft | 371 kts | 278° |
| 2026-04-29 01:11 | 33.40796 | -84.28395 | 32207 ft | 371 kts | 278° |
| 2026-04-29 01:12 | 33.41603 | -84.34490 | 32206 ft | 371 kts | 278° |
| 2026-04-29 01:12 | 33.42408 | -84.40595 | 32208 ft | 371 kts | 278° |
| 2026-04-29 01:13 | 33.43208 | -84.46689 | 32200 ft | 370 kts | 278° |
| 2026-04-29 01:13 | 33.44006 | -84.52784 | 32172 ft | 370 kts | 278° |
| 2026-04-29 01:14 | 33.44798 | -84.58867 | 32172 ft | 370 kts | 278° |
| 2026-04-29 01:14 | 33.45590 | -84.64965 | 32168 ft | 370 kts | 278° |
| 2026-04-29 01:15 | 33.46377 | -84.71050 | 32162 ft | 370 kts | 278° |
| 2026-04-29 01:15 | 33.47028 | -84.76105 | 32166 ft | 369 kts | 278° |
| 2026-04-29 01:16 | 33.47936 | -84.83184 | 32166 ft | 369 kts | 278° |
| 2026-04-29 01:16 | 33.48321 | -84.86258 | 31710 ft | 380 kts | 277° |
| 2026-04-29 01:16 | 33.48586 | -84.88360 | 31327 ft | 388 kts | 278° |
| 2026-04-29 01:16 | 33.49006 | -84.91555 | 30765 ft | 383 kts | 278° |
| 2026-04-29 01:17 | 33.49408 | -84.94659 | 30242 ft | 371 kts | 278° |
| 2026-04-29 01:17 | 33.49786 | -84.97670 | 29600 ft | 361 kts | 278° |
| 2026-04-29 01:17 | 33.50152 | -85.00608 | 28965 ft | 353 kts | 278° |
| 2026-04-29 01:17 | 33.50519 | -85.03494 | 28348 ft | 347 kts | 278° |
| 2026-04-29 01:18 | 33.50880 | -85.06340 | 27737 ft | 343 kts | 278° |
| 2026-04-29 01:18 | 33.51582 | -85.11932 | 26556 ft | 336 kts | 278° |
| 2026-04-29 01:18 | 33.51929 | -85.14696 | 25982 ft | 334 kts | 278° |
| 2026-04-29 01:19 | 33.52274 | -85.17446 | 25418 ft | 332 kts | 278° |
| 2026-04-29 01:19 | 33.52615 | -85.20175 | 24862 ft | 330 kts | 278° |
| 2026-04-29 01:19 | 33.52949 | -85.22853 | 24321 ft | 329 kts | 278° |
| 2026-04-29 01:19 | 33.53287 | -85.25566 | 23780 ft | 328 kts | 278° |
| 2026-04-29 01:20 | 33.53622 | -85.28267 | 23142 ft | 327 kts | 278° |
| 2026-04-29 01:20 | 33.53957 | -85.30961 | 22509 ft | 326 kts | 278° |
| 2026-04-29 01:20 | 33.54292 | -85.33659 | 21890 ft | 326 kts | 277° |
| 2026-04-29 01:20 | 33.54624 | -85.36342 | 21284 ft | 325 kts | 277° |
| 2026-04-29 01:21 | 33.54953 | -85.39017 | 20691 ft | 324 kts | 277° |
| 2026-04-29 01:21 | 33.55282 | -85.41684 | 20110 ft | 323 kts | 277° |
| 2026-04-29 01:21 | 33.55610 | -85.44347 | 19537 ft | 323 kts | 277° |
| 2026-04-29 01:21 | 33.55936 | -85.47008 | 18975 ft | 322 kts | 277° |
| 2026-04-29 01:22 | 33.56261 | -85.49661 | 18424 ft | 322 kts | 277° |
| 2026-04-29 01:22 | 33.56587 | -85.52317 | 17798 ft | 321 kts | 277° |
| 2026-04-29 01:22 | 33.56910 | -85.54964 | 17197 ft | 321 kts | 277° |
| 2026-04-29 01:22 | 33.57233 | -85.57617 | 16607 ft | 321 kts | 277° |
| 2026-04-29 01:23 | 33.57555 | -85.60267 | 16031 ft | 321 kts | 277° |
| 2026-04-29 01:23 | 33.57877 | -85.62917 | 15462 ft | 321 kts | 277° |
| 2026-04-29 01:23 | 33.58198 | -85.65562 | 14907 ft | 321 kts | 277° |
| 2026-04-29 01:23 | 33.58518 | -85.68214 | 14360 ft | 321 kts | 276° |
| 2026-04-29 01:24 | 33.58839 | -85.70860 | 13799 ft | 320 kts | 276° |
| 2026-04-29 01:24 | 33.59157 | -85.73501 | 13200 ft | 320 kts | 276° |
| 2026-04-29 01:24 | 33.59475 | -85.76144 | 12592 ft | 320 kts | 276° |
| 2026-04-29 01:24 | 33.59790 | -85.78778 | 12012 ft | 317 kts | 276° |
| 2026-04-29 01:25 | 33.60097 | -85.81330 | 11431 ft | 306 kts | 277° |
| 2026-04-29 01:25 | 33.60396 | -85.83813 | 10854 ft | 295 kts | 276° |
| 2026-04-29 01:25 | 33.60683 | -85.86220 | 10292 ft | 288 kts | 276° |
| 2026-04-29 01:25 | 33.60962 | -85.88571 | 9693 ft | 282 kts | 276° |
| 2026-04-29 01:26 | 33.61239 | -85.90879 | 9084 ft | 277 kts | 276° |
| 2026-04-29 01:26 | 33.61509 | -85.93151 | 8487 ft | 273 kts | 276° |
| 2026-04-29 01:26 | 33.61775 | -85.95398 | 7901 ft | 270 kts | 276° |
| 2026-04-29 01:26 | 33.62038 | -85.97616 | 7316 ft | 267 kts | 275° |
| 2026-04-29 01:27 | 33.62298 | -85.99812 | 6753 ft | 265 kts | 275° |
| 2026-04-29 01:27 | 33.62556 | -86.01993 | 6171 ft | 263 kts | 275° |
| 2026-04-29 01:27 | 33.62809 | -86.04133 | 6043 ft | 254 kts | 274° |
| 2026-04-29 01:27 | 33.63053 | -86.06231 | 6034 ft | 255 kts | 275° |
| 2026-04-29 01:28 | 33.63300 | -86.08339 | 6032 ft | 256 kts | 275° |
| 2026-04-29 01:28 | 33.63550 | -86.10454 | 6030 ft | 256 kts | 275° |
| 2026-04-29 01:28 | 33.63797 | -86.12555 | 6032 ft | 257 kts | 275° |
| 2026-04-29 01:28 | 33.64045 | -86.14681 | 6029 ft | 257 kts | 275° |
| 2026-04-29 01:29 | 33.64292 | -86.16807 | 6053 ft | 257 kts | 275° |
| 2026-04-29 01:29 | 33.64539 | -86.18918 | 5988 ft | 253 kts | 275° |
| 2026-04-29 01:29 | 33.64785 | -86.21031 | 5696 ft | 257 kts | 275° |
| 2026-04-29 01:29 | 33.65032 | -86.23142 | 5537 ft | 254 kts | 275° |
| 2026-04-29 01:30 | 33.65276 | -86.25243 | 5349 ft | 253 kts | 274° |
| 2026-04-29 01:30 | 33.65518 | -86.27329 | 5173 ft | 252 kts | 274° |
| 2026-04-29 01:30 | 33.65758 | -86.29412 | 4962 ft | 252 kts | 274° |
| 2026-04-29 01:30 | 33.65999 | -86.31495 | 4786 ft | 251 kts | 274° |
| 2026-04-29 01:31 | 33.66240 | -86.33573 | 4572 ft | 252 kts | 274° |
| 2026-04-29 01:31 | 33.66479 | -86.35655 | 4366 ft | 252 kts | 273° |
| 2026-04-29 01:31 | 33.66716 | -86.37707 | 4168 ft | 251 kts | 274° |
| 2026-04-29 01:31 | 33.66954 | -86.39765 | 3974 ft | 246 kts | 273° |
| 2026-04-29 01:32 | 33.67185 | -86.41790 | 3773 ft | 243 kts | 272° |
| 2026-04-29 01:32 | 33.67413 | -86.43785 | 3576 ft | 240 kts | 272° |
| 2026-04-29 01:32 | 33.67639 | -86.45762 | 3368 ft | 238 kts | 272° |
| 2026-04-29 01:32 | 33.67862 | -86.47692 | 3325 ft | 227 kts | 272° |
| 2026-04-29 01:33 | 33.68073 | -86.49529 | 3306 ft | 217 kts | 272° |
| 2026-04-29 01:33 | 33.68271 | -86.51287 | 3287 ft | 208 kts | 271° |
| 2026-04-29 01:33 | 33.68466 | -86.52981 | 3280 ft | 202 kts | 270° |
| 2026-04-29 01:33 | 33.68376 | -86.54591 | 3271 ft | 188 kts | 246° |
| 2026-04-29 01:34 | 33.67659 | -86.55821 | 3282 ft | 178 kts | 217° |
| 2026-04-29 01:34 | 33.66641 | -86.56623 | 3276 ft | 173 kts | 225° |
| 2026-04-29 01:34 | 33.66190 | -86.57904 | 3282 ft | 168 kts | 250° |
| 2026-04-29 01:34 | 33.65718 | -86.59137 | 3287 ft | 158 kts | 234° |
| 2026-04-29 01:35 | 33.65141 | -86.60247 | 3288 ft | 159 kts | 233° |
| 2026-04-29 01:35 | 33.64526 | -86.61361 | 3266 ft | 162 kts | 233° |
| 2026-04-29 01:35 | 33.63866 | -86.62492 | 3183 ft | 167 kts | 232° |
| 2026-04-29 01:35 | 33.63266 | -86.63675 | 2973 ft | 160 kts | 240° |
| 2026-04-29 01:36 | 33.62795 | -86.64781 | 2781 ft | 141 kts | 234° |
| 2026-04-29 01:36 | 33.62266 | -86.65766 | 2511 ft | 136 kts | 230° |
| 2026-04-29 01:36 | 33.61723 | -86.66609 | 2184 ft | 120 kts | 227° |
| 2026-04-29 01:36 | 33.61211 | -86.67403 | 1954 ft | 124 kts | 230° |
| 2026-04-29 01:37 | 33.60723 | -86.68224 | 1814 ft | 117 kts | 231° |
| 2026-04-29 01:37 | 33.60275 | -86.69037 | 1746 ft | 115 kts | 229° |
| 2026-04-29 01:37 | 33.59800 | -86.69843 | 1618 ft | 119 kts | 231° |
| 2026-04-29 01:37 | 33.59287 | -86.70664 | 1443 ft | 126 kts | 231° |
| 2026-04-29 01:38 | 33.58753 | -86.71525 | 1249 ft | 134 kts | 231° |
| 2026-04-29 01:38 | 33.58198 | -86.72454 | 997 ft | 142 kts | 233° |
| 2026-04-29 01:38 | 33.57639 | -86.73446 | 819 ft | 143 kts | 233° |
| 2026-04-29 01:38 | 33.57086 | -86.74377 | 653 ft | 129 kts | 236° |
| 2026-04-29 01:39 | 33.56676 | -86.75079 | 640 ft | 73 kts | 234° |
| 2026-04-29 01:39 | 33.56449 | -86.75470 | 639 ft | 48 kts | 236° |
| 2026-04-29 01:39 | 33.56279 | -86.75764 | 637 ft | 42 kts | 234° |
| 2026-04-29 01:39 | 33.56142 | -86.76005 | 632 ft | 24 kts | 236° |
| 2026-04-29 01:40 | 33.56074 | -86.76055 | 628 ft | 10 kts | 118° |
| 2026-04-29 01:40 | 33.56080 | -86.75961 | 630 ft | 12 kts | 86° |
| 2026-04-29 01:40 | 33.56082 | -86.75931 | 630 ft | 0 kts | 88° |
| 2026-04-29 01:41 | 33.56082 | -86.75930 | 630 ft | 1 kts | 88° |
| 2026-04-29 01:41 | 33.56091 | -86.75890 | 636 ft | 9 kts | 57° |
| 2026-04-29 01:41 | 33.56149 | -86.75790 | 635 ft | 19 kts | 55° |
| 2026-04-29 01:41 | 33.56233 | -86.75642 | 636 ft | 21 kts | 55° |
| 2026-04-29 01:42 | 33.56317 | -86.75501 | 637 ft | 19 kts | 56° |
| 2026-04-29 01:42 | 33.56391 | -86.75370 | 637 ft | 20 kts | 55° |
| 2026-04-29 01:42 | 33.56466 | -86.75240 | 636 ft | 17 kts | 53° |
| 2026-04-29 01:42 | 33.56533 | -86.75125 | 638 ft | 17 kts | 57° |
| 2026-04-29 01:43 | 33.56595 | -86.75004 | 638 ft | 18 kts | 76° |
| 2026-04-29 01:43 | 33.56539 | -86.74884 | 638 ft | 17 kts | 135° |
| 2026-04-29 01:43 | 33.56458 | -86.74780 | 636 ft | 17 kts | 133° |
| 2026-04-29 01:43 | 33.56422 | -86.74663 | 637 ft | 12 kts | 85° |
| 2026-04-29 01:44 | 33.56429 | -86.74591 | 638 ft | 7 kts | 81° |
| 2026-04-29 01:44 | 33.56437 | -86.74495 | 638 ft | 16 kts | 84° |
| 2026-04-29 01:44 | 33.56461 | -86.74350 | 634 ft | 16 kts | 38° |
| 2026-04-29 01:44 | 33.56548 | -86.74358 | 636 ft | 9 kts | 334° |
| 2026-04-29 01:45 | 33.56602 | -86.74319 | 638 ft | 6 kts | 39° |
| 2026-04-29 01:45 | 33.56620 | -86.74317 | 638 ft | 2 kts | 328° |
| 2026-04-29 01:45 | 33.56627 | -86.74323 | 638 ft | 0 kts | 324° |